createdAt,value
2018-07-12T00:00:19.738Z,96.22
2018-07-12T00:00:45.877Z,96.13
2018-07-12T00:01:12.032Z,96.7
2018-07-12T00:01:38.178Z,96.13
2018-07-12T00:02:04.314Z,96.42
2018-07-12T00:02:31.046Z,96.03
2018-07-12T00:02:57.213Z,96.32
2018-07-12T00:03:23.374Z,95.94
2018-07-12T00:03:49.506Z,96.22
2018-07-12T00:04:15.653Z,96.51
2018-07-12T00:04:41.810Z,96.51
2018-07-12T00:05:07.953Z,96.51
2018-07-12T00:05:34.091Z,96.51
2018-07-12T00:06:01.566Z,96.13
2018-07-12T00:06:29.342Z,96.7
2018-07-12T00:06:56.647Z,96.8
2018-07-12T00:07:23.871Z,96.51
2018-07-12T00:07:50.496Z,95.94
2018-07-12T00:08:17.123Z,96.42
2018-07-12T00:08:43.261Z,96.32
2018-07-12T00:09:09.329Z,96.42
2018-07-12T00:09:35.472Z,96.42
2018-07-12T00:10:01.747Z,96.51
2018-07-12T00:10:27.814Z,96.03
2018-07-12T00:10:53.976Z,96.22
2018-07-12T00:11:20.110Z,96.22
2018-07-12T00:11:46.250Z,96.13
2018-07-12T00:12:12.389Z,96.13
2018-07-12T00:12:38.523Z,96.51
2018-07-12T00:13:04.657Z,96.13
2018-07-12T00:13:30.801Z,96.13
2018-07-12T00:13:56.943Z,96.32
2018-07-12T00:14:23.083Z,96.03
2018-07-12T00:14:49.254Z,96.13
2018-07-12T00:15:15.408Z,96.42
2018-07-12T00:15:41.549Z,96.22
2018-07-12T00:16:07.695Z,95.84
2018-07-12T00:16:33.857Z,95.6
2018-07-12T00:16:59.995Z,95.79
2018-07-12T00:17:26.133Z,95.79
2018-07-12T00:17:52.300Z,95.89
2018-07-12T00:18:18.455Z,95.75
2018-07-12T00:18:44.597Z,95.94
2018-07-12T00:19:10.732Z,96.03
2018-07-12T00:19:36.866Z,95.94
2018-07-12T00:20:03.031Z,95.94
2018-07-12T00:20:29.198Z,95.94
2018-07-12T00:20:55.331Z,95.7
2018-07-12T00:21:21.466Z,95.55
2018-07-12T00:21:47.630Z,95.65
2018-07-12T00:22:13.762Z,95.65
2018-07-12T00:22:39.901Z,95.94
2018-07-12T00:23:06.037Z,95.65
2018-07-12T00:23:32.174Z,95.89
2018-07-12T00:23:58.315Z,95.94
2018-07-12T00:24:24.457Z,95.45
2018-07-12T00:24:50.575Z,95.55
2018-07-12T00:25:16.720Z,95.65
2018-07-12T00:25:42.857Z,95.65
2018-07-12T00:26:08.993Z,95.36
2018-07-12T00:26:35.152Z,95.45
2018-07-12T00:27:01.310Z,95.36
2018-07-12T00:27:27.456Z,96.03
2018-07-12T00:27:53.591Z,95.75
2018-07-12T00:28:19.733Z,95.84
2018-07-12T00:28:45.870Z,96.13
2018-07-12T00:29:12.012Z,95.94
2018-07-12T00:29:38.145Z,96.13
2018-07-12T00:30:04.309Z,96.32
2018-07-12T00:30:30.447Z,96.42
2018-07-12T00:30:56.585Z,96.32
2018-07-12T00:31:22.723Z,96.51
2018-07-12T00:31:48.865Z,96.8
2018-07-12T00:32:15.054Z,97.47
2018-07-12T00:32:41.214Z,96.99
2018-07-12T00:33:07.351Z,97.09
2018-07-12T00:33:33.505Z,96.9
2018-07-12T00:33:59.661Z,97.09
2018-07-12T00:34:25.797Z,96.61
2018-07-12T00:34:51.930Z,97.19
2018-07-12T00:35:18.120Z,96.9
2018-07-12T00:35:44.278Z,97.19
2018-07-12T00:36:10.419Z,96.9
2018-07-12T00:36:36.558Z,96.99
2018-07-12T00:37:02.693Z,96.99
2018-07-12T00:37:28.832Z,97.28
2018-07-12T00:37:54.972Z,97.47
2018-07-12T00:38:21.106Z,97.19
2018-07-12T00:38:47.231Z,97.38
2018-07-12T00:39:13.374Z,97.76
2018-07-12T00:39:39.509Z,97.67
2018-07-12T00:40:05.652Z,97.96
2018-07-12T00:40:31.792Z,97.76
2018-07-12T00:40:57.927Z,97.67
2018-07-12T00:41:24.109Z,97.67
2018-07-12T00:41:50.240Z,98.05
2018-07-12T00:42:16.377Z,97.86
2018-07-12T00:42:42.511Z,97.57
2018-07-12T00:43:08.652Z,97.86
2018-07-12T00:43:34.786Z,98.14
2018-07-12T00:44:00.932Z,98.44
2018-07-12T00:44:27.077Z,98.34
2018-07-12T00:44:53.272Z,98.53
2018-07-12T00:45:19.406Z,98.63
2018-07-12T00:45:45.576Z,98.44
2018-07-12T00:46:11.708Z,98.72
2018-07-12T00:46:37.846Z,98.68
2018-07-12T00:47:04.058Z,98.58
2018-07-12T00:47:30.199Z,98.68
2018-07-12T00:47:56.362Z,98.82
2018-07-12T00:48:22.528Z,98.77
2018-07-12T00:48:48.672Z,98.77
2018-07-12T00:49:14.825Z,99.15
2018-07-12T00:49:40.971Z,98.96
2018-07-12T00:50:07.106Z,99.15
2018-07-12T00:50:33.270Z,99.35
2018-07-12T00:50:59.415Z,99.54
2018-07-12T00:51:25.549Z,99.35
2018-07-12T00:51:51.688Z,99.35
2018-07-12T00:52:17.825Z,99.54
2018-07-12T00:52:43.973Z,99.92
2018-07-12T00:53:10.127Z,99.44
2018-07-12T00:53:36.292Z,99.99
2018-07-12T00:54:02.434Z,99.99
2018-07-12T00:54:28.570Z,99.99
2018-07-12T00:54:54.710Z,99.99
2018-07-12T00:55:20.843Z,99.99
2018-07-12T00:55:46.982Z,99.99
2018-07-12T00:56:13.122Z,99.99
2018-07-12T00:56:39.260Z,99.99
2018-07-12T00:57:05.446Z,99.99
2018-07-12T00:57:31.585Z,99.99
2018-07-12T00:57:57.720Z,99.99
2018-07-12T00:58:23.865Z,99.99
2018-07-12T00:58:50.008Z,99.99
2018-07-12T00:59:16.145Z,99.99
2018-07-12T00:59:42.308Z,99.99
2018-07-12T01:00:08.447Z,99.99
2018-07-12T01:00:34.588Z,99.99
2018-07-12T01:01:00.724Z,99.99
2018-07-12T01:01:26.858Z,99.99
2018-07-12T01:01:52.995Z,99.99
2018-07-12T01:02:19.151Z,99.99
2018-07-12T01:02:45.289Z,99.99
2018-07-12T01:03:11.420Z,99.99
2018-07-12T01:03:37.562Z,99.99
2018-07-12T01:04:03.726Z,99.99
2018-07-12T01:04:29.860Z,99.99
2018-07-12T01:04:56.007Z,99.99
2018-07-12T01:05:22.143Z,99.99
2018-07-12T01:05:48.284Z,99.99
2018-07-12T01:06:14.418Z,99.99
2018-07-12T01:06:40.555Z,99.99
2018-07-12T01:07:06.698Z,99.99
2018-07-12T01:07:32.836Z,99.99
2018-07-12T01:07:58.971Z,99.99
2018-07-12T01:08:25.116Z,99.99
2018-07-12T01:08:51.247Z,99.99
2018-07-12T01:09:17.381Z,99.99
2018-07-12T01:09:43.546Z,99.99
2018-07-12T01:10:09.683Z,99.99
2018-07-12T01:10:35.847Z,99.99
2018-07-12T01:11:02.024Z,99.99
2018-07-12T01:11:28.190Z,99.99
2018-07-12T01:11:54.329Z,99.99
2018-07-12T01:12:20.472Z,99.99
2018-07-12T01:12:46.611Z,99.99
2018-07-12T01:13:12.750Z,99.99
2018-07-12T01:13:38.891Z,99.99
2018-07-12T01:14:05.031Z,99.99
2018-07-12T01:14:31.166Z,99.99
2018-07-12T01:14:57.301Z,99.99
2018-07-12T01:15:23.435Z,99.99
2018-07-12T01:15:49.597Z,99.99
2018-07-12T01:16:15.767Z,99.99
2018-07-12T01:16:41.902Z,99.99
2018-07-12T01:17:08.043Z,99.99
2018-07-12T01:17:34.180Z,99.99
2018-07-12T01:18:00.355Z,99.99
2018-07-12T01:18:26.487Z,99.99
2018-07-12T01:18:52.627Z,99.99
2018-07-12T01:19:18.775Z,99.99
2018-07-12T01:19:44.914Z,99.99
2018-07-12T01:20:11.073Z,99.99
2018-07-12T01:20:37.233Z,99.99
2018-07-12T01:21:03.400Z,99.99
2018-07-12T01:21:29.540Z,99.99
2018-07-12T01:21:55.676Z,99.99
2018-07-12T01:22:21.818Z,99.99
2018-07-12T01:22:47.954Z,99.99
2018-07-12T01:23:14.088Z,99.99
2018-07-12T01:23:40.234Z,99.99
2018-07-12T01:24:06.374Z,99.99
2018-07-12T01:24:32.540Z,99.99
2018-07-12T01:24:58.672Z,99.99
2018-07-12T01:25:24.815Z,99.99
2018-07-12T01:25:50.960Z,99.99
2018-07-12T01:26:17.095Z,99.99
2018-07-12T01:26:43.257Z,99.99
2018-07-12T01:27:09.469Z,99.99
2018-07-12T01:27:35.603Z,99.99
2018-07-12T01:28:01.739Z,99.99
2018-07-12T01:28:27.874Z,99.99
2018-07-12T01:28:54.017Z,99.99
2018-07-12T01:29:20.181Z,99.99
2018-07-12T01:29:46.316Z,99.99
2018-07-12T01:30:12.466Z,99.99
2018-07-12T01:30:38.600Z,99.99
2018-07-12T01:31:04.735Z,99.99
2018-07-12T01:31:30.871Z,99.99
2018-07-12T01:31:57.010Z,99.99
2018-07-12T01:32:23.149Z,99.99
2018-07-12T01:32:49.291Z,99.99
2018-07-12T01:33:15.430Z,99.99
2018-07-12T01:33:41.569Z,99.99
2018-07-12T01:34:07.705Z,99.99
2018-07-12T01:34:33.839Z,99.99
2018-07-12T01:34:59.974Z,99.99
2018-07-12T01:35:26.144Z,99.99
2018-07-12T01:35:52.282Z,99.99
2018-07-12T01:36:18.441Z,99.99
2018-07-12T01:36:44.578Z,99.99
2018-07-12T01:37:10.746Z,99.99
2018-07-12T01:37:36.875Z,99.99
2018-07-12T01:38:03.024Z,99.99
2018-07-12T01:38:29.152Z,99.99
2018-07-12T01:38:55.290Z,99.99
2018-07-12T01:39:21.432Z,99.99
2018-07-12T01:39:47.562Z,99.99
2018-07-12T01:40:13.701Z,99.99
2018-07-12T01:40:39.846Z,99.99
2018-07-12T01:41:05.989Z,99.99
2018-07-12T01:41:32.122Z,99.99
2018-07-12T01:41:58.264Z,99.99
2018-07-12T01:42:24.401Z,99.99
2018-07-12T01:42:50.567Z,99.99
2018-07-12T01:43:16.704Z,99.99
2018-07-12T01:43:42.845Z,99.99
2018-07-12T01:44:08.990Z,99.99
2018-07-12T01:44:35.125Z,99.99
2018-07-12T01:45:01.291Z,99.99
2018-07-12T01:45:27.442Z,99.99
2018-07-12T01:45:53.583Z,99.99
2018-07-12T01:46:19.731Z,99.92
2018-07-12T01:46:45.886Z,99.92
2018-07-12T01:47:12.023Z,99.99
2018-07-12T01:47:38.148Z,99.99
2018-07-12T01:48:04.320Z,99.99
2018-07-12T01:48:30.463Z,99.99
2018-07-12T01:48:56.604Z,99.49
2018-07-12T01:49:22.738Z,99.99
2018-07-12T01:49:48.869Z,99.99
2018-07-12T01:50:15.012Z,99.99
2018-07-12T01:50:41.173Z,99.99
2018-07-12T01:51:07.313Z,99.99
2018-07-12T01:51:33.448Z,99.99
2018-07-12T01:51:59.582Z,99.99
2018-07-12T01:52:25.723Z,99.99
2018-07-12T01:52:51.886Z,99.99
2018-07-12T01:53:18.040Z,99.97
2018-07-12T01:53:44.176Z,99.99
2018-07-12T01:54:10.311Z,99.99
2018-07-12T01:54:36.457Z,99.99
2018-07-12T01:55:02.592Z,99.99
2018-07-12T01:55:28.729Z,99.87
2018-07-12T01:55:54.866Z,99.99
2018-07-12T01:56:21.006Z,99.87
2018-07-12T01:56:47.147Z,99.99
2018-07-12T01:57:13.283Z,99.87
2018-07-12T01:57:39.445Z,99.99
2018-07-12T01:58:05.588Z,99.99
2018-07-12T01:58:31.745Z,99.99
2018-07-12T01:58:57.913Z,99.99
2018-07-12T01:59:24.054Z,99.99
2018-07-12T01:59:50.196Z,99.99
2018-07-12T02:00:16.321Z,99.99
2018-07-12T02:00:42.495Z,99.99
2018-07-12T02:01:08.636Z,99.99
2018-07-12T02:01:34.805Z,99.99
2018-07-12T02:02:00.941Z,99.99
2018-07-12T02:02:27.082Z,99.78
2018-07-12T02:02:53.218Z,99.99
2018-07-12T02:03:19.361Z,99.99
2018-07-12T02:03:45.496Z,99.99
2018-07-12T02:04:11.634Z,99.99
2018-07-12T02:04:37.781Z,99.99
2018-07-12T02:05:03.917Z,99.99
2018-07-12T02:05:30.077Z,99.99
2018-07-12T02:05:56.209Z,99.87
2018-07-12T02:06:22.358Z,99.87
2018-07-12T02:06:48.521Z,99.99
2018-07-12T02:07:14.664Z,99.99
2018-07-12T02:07:40.806Z,99.99
2018-07-12T02:08:06.995Z,99.99
2018-07-12T02:08:33.132Z,99.99
2018-07-12T02:08:59.269Z,99.99
2018-07-12T02:09:25.430Z,99.99
2018-07-12T02:09:51.565Z,99.99
2018-07-12T02:10:17.725Z,99.99
2018-07-12T02:10:43.866Z,99.99
2018-07-12T02:11:10.013Z,99.99
2018-07-12T02:11:36.148Z,99.99
2018-07-12T02:12:02.294Z,99.99
2018-07-12T02:12:28.446Z,99.99
2018-07-12T02:12:54.584Z,99.99
2018-07-12T02:13:20.771Z,99.99
2018-07-12T02:13:46.918Z,99.99
2018-07-12T02:14:13.047Z,99.99
2018-07-12T02:14:39.208Z,99.99
2018-07-12T02:15:05.371Z,99.99
2018-07-12T02:15:31.507Z,99.99
2018-07-12T02:15:57.644Z,99.99
2018-07-12T02:16:23.778Z,99.99
2018-07-12T02:16:49.945Z,99.99
2018-07-12T02:17:16.092Z,99.99
2018-07-12T02:17:42.264Z,99.99
2018-07-12T02:18:08.399Z,99.99
2018-07-12T02:18:34.536Z,99.99
2018-07-12T02:19:00.703Z,99.99
2018-07-12T02:19:26.840Z,99.99
2018-07-12T02:19:52.973Z,99.99
2018-07-12T02:20:19.113Z,99.99
2018-07-12T02:20:45.253Z,99.99
2018-07-12T02:21:11.394Z,99.99
2018-07-12T02:21:37.544Z,99.99
2018-07-12T02:22:03.686Z,99.99
2018-07-12T02:22:29.824Z,99.99
2018-07-12T02:22:55.959Z,99.99
2018-07-12T02:23:22.091Z,99.99
2018-07-12T02:23:48.229Z,99.99
2018-07-12T02:24:14.368Z,99.99
2018-07-12T02:24:40.534Z,99.99
2018-07-12T02:25:06.690Z,99.99
2018-07-12T02:25:32.831Z,99.99
2018-07-12T02:25:58.968Z,99.99
2018-07-12T02:26:25.102Z,99.99
2018-07-12T02:26:51.765Z,99.99
2018-07-12T02:27:17.934Z,99.99
2018-07-12T02:27:44.067Z,99.99
2018-07-12T02:28:10.203Z,99.99
2018-07-12T02:28:36.335Z,99.99
2018-07-12T02:29:02.476Z,99.99
2018-07-12T02:29:28.613Z,99.99
2018-07-12T02:29:54.751Z,99.99
2018-07-12T02:30:20.916Z,99.99
2018-07-12T02:30:47.100Z,99.99
2018-07-12T02:31:13.292Z,99.99
2018-07-12T02:31:39.434Z,99.99
2018-07-12T02:32:05.592Z,99.99
2018-07-12T02:32:31.729Z,99.99
2018-07-12T02:32:57.892Z,99.99
2018-07-12T02:33:24.047Z,99.99
2018-07-12T02:33:50.232Z,99.99
2018-07-12T02:34:16.372Z,99.99
2018-07-12T02:34:42.535Z,99.99
2018-07-12T02:35:08.759Z,99.99
2018-07-12T02:35:34.898Z,99.99
2018-07-12T02:36:01.035Z,99.99
2018-07-12T02:36:27.175Z,99.99
2018-07-12T02:36:53.328Z,99.99
2018-07-12T02:37:19.515Z,99.99
2018-07-12T02:37:45.654Z,99.99
2018-07-12T02:38:11.819Z,99.99
2018-07-12T02:38:37.986Z,99.99
2018-07-12T02:39:04.195Z,99.99
2018-07-12T02:39:30.361Z,99.99
2018-07-12T02:39:56.518Z,99.99
2018-07-12T02:40:22.683Z,99.99
2018-07-12T02:40:48.876Z,99.99
2018-07-12T02:41:15.037Z,99.99
2018-07-12T02:41:41.257Z,99.99
2018-07-12T02:42:07.448Z,99.99
2018-07-12T02:42:33.604Z,99.99
2018-07-12T02:42:59.790Z,99.99
2018-07-12T02:43:25.944Z,99.99
2018-07-12T02:43:52.129Z,99.99
2018-07-12T02:44:18.289Z,99.99
2018-07-12T02:44:44.430Z,99.99
2018-07-12T02:45:10.581Z,99.99
2018-07-12T02:45:36.767Z,99.99
2018-07-12T02:46:02.950Z,99.99
2018-07-12T02:46:29.103Z,99.99
2018-07-12T02:46:55.233Z,99.99
2018-07-12T02:47:21.376Z,99.99
2018-07-12T02:47:47.536Z,99.99
2018-07-12T02:48:13.749Z,99.99
2018-07-12T02:48:39.912Z,99.99
2018-07-12T02:49:06.065Z,99.99
2018-07-12T02:49:32.228Z,99.99
2018-07-12T02:49:58.389Z,99.99
2018-07-12T02:50:24.601Z,99.99
2018-07-12T02:50:50.774Z,99.99
2018-07-12T02:51:16.938Z,99.99
2018-07-12T02:51:43.069Z,99.99
2018-07-12T02:52:09.207Z,99.99
2018-07-12T02:52:35.346Z,99.99
2018-07-12T02:53:01.481Z,99.99
2018-07-12T02:53:27.673Z,99.99
2018-07-12T02:53:53.831Z,99.99
2018-07-12T02:54:19.985Z,99.99
2018-07-12T02:54:46.121Z,99.99
2018-07-12T02:55:12.338Z,99.99
2018-07-12T02:55:38.490Z,99.99
2018-07-12T02:56:04.654Z,99.99
2018-07-12T02:56:30.824Z,99.99
2018-07-12T02:56:57.001Z,99.99
2018-07-12T02:57:23.138Z,99.99
2018-07-12T02:57:49.298Z,99.99
2018-07-12T02:58:15.454Z,99.99
2018-07-12T02:58:41.621Z,99.82
2018-07-12T02:59:07.807Z,99.99
2018-07-12T02:59:33.997Z,99.99
2018-07-12T03:00:00.139Z,99.82
2018-07-12T03:00:26.300Z,99.99
2018-07-12T03:00:52.486Z,99.92
2018-07-12T03:01:18.755Z,99.99
2018-07-12T03:01:44.895Z,99.99
2018-07-12T03:02:11.037Z,99.99
2018-07-12T03:02:37.215Z,99.99
2018-07-12T03:03:03.376Z,99.99
2018-07-12T03:03:29.565Z,99.99
2018-07-12T03:03:55.733Z,99.63
2018-07-12T03:04:21.902Z,99.44
2018-07-12T03:04:48.042Z,99.54
2018-07-12T03:05:14.199Z,99.54
2018-07-12T03:05:40.391Z,99.15
2018-07-12T03:06:06.584Z,99.15
2018-07-12T03:06:32.731Z,99.34
2018-07-12T03:06:58.883Z,99.25
2018-07-12T03:07:25.030Z,99.73
2018-07-12T03:07:51.190Z,99.73
2018-07-12T03:08:17.423Z,99.63
2018-07-12T03:08:43.584Z,99.34
2018-07-12T03:09:09.772Z,99.54
2018-07-12T03:09:35.933Z,99.34
2018-07-12T03:10:02.075Z,99.25
2018-07-12T03:10:28.212Z,99.44
2018-07-12T03:10:54.405Z,99.44
2018-07-12T03:11:20.557Z,98.77
2018-07-12T03:11:46.703Z,98.67
2018-07-12T03:12:12.871Z,99.05
2018-07-12T03:12:39.073Z,98.77
2018-07-12T03:13:05.264Z,99.54
2018-07-12T03:13:31.409Z,99.63
2018-07-12T03:13:57.541Z,99.15
2018-07-12T03:14:23.684Z,99.25
2018-07-12T03:14:49.847Z,99.05
2018-07-12T03:15:15.995Z,99.05
2018-07-12T03:15:42.299Z,98.77
2018-07-12T03:16:08.629Z,98.96
2018-07-12T03:16:34.849Z,99.05
2018-07-12T03:17:01.149Z,98.67
2018-07-12T03:17:27.407Z,99.05
2018-07-12T03:17:53.565Z,98.96
2018-07-12T03:18:19.754Z,99.34
2018-07-12T03:18:45.942Z,98.96
2018-07-12T03:19:12.098Z,98.77
2018-07-12T03:19:38.263Z,98.58
2018-07-12T03:20:04.394Z,98.96
2018-07-12T03:20:30.535Z,98.58
2018-07-12T03:20:56.673Z,99.05
2018-07-12T03:21:22.860Z,98.67
2018-07-12T03:21:48.999Z,99.25
2018-07-12T03:22:15.205Z,98.96
2018-07-12T03:22:41.338Z,98.67
2018-07-12T03:23:07.516Z,99.05
2018-07-12T03:23:33.650Z,98.96
2018-07-12T03:23:59.813Z,99.15
2018-07-12T03:24:25.996Z,98.96
2018-07-12T03:24:52.124Z,99.15
2018-07-12T03:25:18.262Z,99.15
2018-07-12T03:25:44.405Z,99.25
2018-07-12T03:26:10.544Z,99.54
2018-07-12T03:26:36.735Z,98.86
2018-07-12T03:27:02.875Z,98.96
2018-07-12T03:27:29.013Z,98.86
2018-07-12T03:27:55.171Z,99.25
2018-07-12T03:28:21.307Z,98.96
2018-07-12T03:28:47.435Z,99.01
2018-07-12T03:29:13.605Z,99.34
2018-07-12T03:29:39.742Z,99.2
2018-07-12T03:30:05.876Z,99.39
2018-07-12T03:30:32.037Z,99.2
2018-07-12T03:30:58.223Z,99.2
2018-07-12T03:31:24.364Z,99.34
2018-07-12T03:31:50.525Z,99.2
2018-07-12T03:32:16.692Z,98.96
2018-07-12T03:32:42.840Z,99.44
2018-07-12T03:33:08.984Z,98.86
2018-07-12T03:33:35.119Z,98.91
2018-07-12T03:34:01.265Z,98.72
2018-07-12T03:34:27.393Z,98.77
2018-07-12T03:34:53.528Z,98.96
2018-07-12T03:35:19.692Z,99.2
2018-07-12T03:35:45.863Z,98.48
2018-07-12T03:36:11.998Z,98.96
2018-07-12T03:36:38.131Z,98.96
2018-07-12T03:37:04.265Z,98.86
2018-07-12T03:37:30.402Z,98.43
2018-07-12T03:37:56.541Z,99.05
2018-07-12T03:38:22.675Z,98.77
2018-07-12T03:38:48.818Z,98.58
2018-07-12T03:39:14.961Z,98.48
2018-07-12T03:39:41.097Z,99.15
2018-07-12T03:40:07.234Z,99.05
2018-07-12T03:40:33.441Z,98.48
2018-07-12T03:40:59.553Z,98.67
2018-07-12T03:41:25.690Z,98.67
2018-07-12T03:41:51.832Z,98.67
2018-07-12T03:42:17.967Z,98.96
2018-07-12T03:42:44.107Z,98.48
2018-07-12T03:43:10.246Z,98.62
2018-07-12T03:43:36.378Z,98.86
2018-07-12T03:44:02.522Z,98.62
2018-07-12T03:44:28.655Z,98.62
2018-07-12T03:44:54.799Z,98.82
2018-07-12T03:45:20.999Z,98.82
2018-07-12T03:45:47.154Z,98.91
2018-07-12T03:46:13.310Z,98.82
2018-07-12T03:46:39.482Z,98.82
2018-07-12T03:47:05.614Z,98.62
2018-07-12T03:47:31.782Z,99.01
2018-07-12T03:47:57.918Z,98.53
2018-07-12T03:48:24.058Z,98.62
2018-07-12T03:48:50.269Z,98.82
2018-07-12T03:49:16.371Z,98.62
2018-07-12T03:49:42.496Z,99.39
2018-07-12T03:50:08.635Z,99.39
2018-07-12T03:50:34.773Z,99.39
2018-07-12T03:51:00.906Z,99.29
2018-07-12T03:51:27.046Z,99.29
2018-07-12T03:51:53.181Z,99.29
2018-07-12T03:52:19.325Z,99.29
2018-07-12T03:52:45.458Z,98.62
2018-07-12T03:53:11.596Z,99.39
2018-07-12T03:53:37.754Z,99.01
2018-07-12T03:54:03.888Z,99.01
2018-07-12T03:54:30.056Z,98.82
2018-07-12T03:54:56.217Z,99.01
2018-07-12T03:55:22.361Z,98.62
2018-07-12T03:55:48.508Z,98.53
2018-07-12T03:56:14.641Z,98.62
2018-07-12T03:56:40.806Z,98.82
2018-07-12T03:57:06.942Z,98.72
2018-07-12T03:57:33.078Z,98.72
2018-07-12T03:57:59.240Z,98.72
2018-07-12T03:58:25.359Z,98.91
2018-07-12T03:58:51.517Z,99.01
2018-07-12T03:59:17.682Z,98.82
2018-07-12T03:59:43.824Z,98.91
2018-07-12T04:00:10.034Z,98.62
2018-07-12T04:00:36.194Z,99.01
2018-07-12T04:01:02.337Z,98.53
2018-07-12T04:01:28.517Z,98.62
2018-07-12T04:01:54.674Z,98.62
2018-07-12T04:02:20.812Z,98.62
2018-07-12T04:02:46.953Z,98.91
2018-07-12T04:03:13.118Z,98.38
2018-07-12T04:03:39.313Z,98.43
2018-07-12T04:04:05.387Z,97.91
2018-07-12T04:04:31.536Z,98.19
2018-07-12T04:04:57.684Z,98.19
2018-07-12T04:05:23.817Z,97.56
2018-07-12T04:05:49.954Z,98.1
2018-07-12T04:06:16.116Z,97.76
2018-07-12T04:06:42.254Z,98.05
2018-07-12T04:07:08.389Z,97.71
2018-07-12T04:07:34.527Z,97.52
2018-07-12T04:08:00.667Z,97.71
2018-07-12T04:08:26.799Z,98
2018-07-12T04:08:52.956Z,97.81
2018-07-12T04:09:19.115Z,97.91
2018-07-12T04:09:45.255Z,97.52
2018-07-12T04:10:11.393Z,97.14
2018-07-12T04:10:37.558Z,97.14
2018-07-12T04:11:03.746Z,97.24
2018-07-12T04:11:29.896Z,97.24
2018-07-12T04:11:56.034Z,97.24
2018-07-12T04:12:22.174Z,97.14
2018-07-12T04:12:48.307Z,97.33
2018-07-12T04:13:14.453Z,96.94
2018-07-12T04:13:40.585Z,97.42
2018-07-12T04:14:06.712Z,97.14
2018-07-12T04:14:32.882Z,97.42
2018-07-12T04:14:59.042Z,97.42
2018-07-12T04:15:25.182Z,96.66
2018-07-12T04:15:51.329Z,96.75
2018-07-12T04:16:17.482Z,96.75
2018-07-12T04:16:43.648Z,96.56
2018-07-12T04:17:09.803Z,96.94
2018-07-12T04:17:35.947Z,97.14
2018-07-12T04:18:02.079Z,97.14
2018-07-12T04:18:28.220Z,97.24
2018-07-12T04:18:54.402Z,96.66
2018-07-12T04:19:20.547Z,97.33
2018-07-12T04:19:46.682Z,96.85
2018-07-12T04:20:12.823Z,96.47
2018-07-12T04:20:38.963Z,96.37
2018-07-12T04:21:05.101Z,96.18
2018-07-12T04:21:31.234Z,96.27
2018-07-12T04:21:57.375Z,96.37
2018-07-12T04:22:23.510Z,96.37
2018-07-12T04:22:49.668Z,96.27
2018-07-12T04:23:15.804Z,96.66
2018-07-12T04:23:41.938Z,96.27
2018-07-12T04:24:08.074Z,96.27
2018-07-12T04:24:34.205Z,96.66
2018-07-12T04:25:00.370Z,96.18
2018-07-12T04:25:26.516Z,96.66
2018-07-12T04:25:52.655Z,96.18
2018-07-12T04:26:18.793Z,96.56
2018-07-12T04:26:44.925Z,96.08
2018-07-12T04:27:11.071Z,95.98
2018-07-12T04:27:37.199Z,96.08
2018-07-12T04:28:03.339Z,96.18
2018-07-12T04:28:29.481Z,96.27
2018-07-12T04:28:55.626Z,95.41
2018-07-12T04:29:21.756Z,95.5
2018-07-12T04:29:47.896Z,95.6
2018-07-12T04:30:14.035Z,95.98
2018-07-12T04:30:40.166Z,95.79
2018-07-12T04:31:06.345Z,95.41
2018-07-12T04:31:32.505Z,95.5
2018-07-12T04:31:58.646Z,95.5
2018-07-12T04:32:24.776Z,95.31
2018-07-12T04:32:50.915Z,95.41
2018-07-12T04:33:17.048Z,95.6
2018-07-12T04:33:43.217Z,95.6
2018-07-12T04:34:09.359Z,95.5
2018-07-12T04:34:35.532Z,95.89
2018-07-12T04:35:01.646Z,95.6
2018-07-12T04:35:27.803Z,95.41
2018-07-12T04:35:53.965Z,95.21
2018-07-12T04:36:20.099Z,95.41
2018-07-12T04:36:46.240Z,95.21
2018-07-12T04:37:12.393Z,95.31
2018-07-12T04:37:38.545Z,95.12
2018-07-12T04:38:04.675Z,95.21
2018-07-12T04:38:30.809Z,95.41
2018-07-12T04:38:56.947Z,95.55
2018-07-12T04:39:23.082Z,95.75
2018-07-12T04:39:49.227Z,95.45
2018-07-12T04:40:15.403Z,95.21
2018-07-12T04:40:41.534Z,95.65
2018-07-12T04:41:07.701Z,95.31
2018-07-12T04:41:33.834Z,95.36
2018-07-12T04:41:59.979Z,95.45
2018-07-12T04:42:26.117Z,95.65
2018-07-12T04:42:52.245Z,95.36
2018-07-12T04:43:18.388Z,95.21
2018-07-12T04:43:44.527Z,95.65
2018-07-12T04:44:10.711Z,95.17
2018-07-12T04:44:36.844Z,94.88
2018-07-12T04:45:02.982Z,95.07
2018-07-12T04:45:29.118Z,95.26
2018-07-12T04:45:55.313Z,95.17
2018-07-12T04:46:21.451Z,94.88
2018-07-12T04:46:47.591Z,94.88
2018-07-12T04:47:13.726Z,94.69
2018-07-12T04:47:39.865Z,94.69
2018-07-12T04:48:06.008Z,94.49
2018-07-12T04:48:32.167Z,94.4
2018-07-12T04:48:58.296Z,94.4
2018-07-12T04:49:24.443Z,94.31
2018-07-12T04:49:50.588Z,94.49
2018-07-12T04:50:16.724Z,94.31
2018-07-12T04:50:42.877Z,94.4
2018-07-12T04:51:09.029Z,94.4
2018-07-12T04:51:35.155Z,94.31
2018-07-12T04:52:01.288Z,93.58
2018-07-12T04:52:27.446Z,94.06
2018-07-12T04:52:53.582Z,93.44
2018-07-12T04:53:19.725Z,92.57
2018-07-12T04:53:45.858Z,91.8
2018-07-12T04:54:11.993Z,90.84
2018-07-12T04:54:38.129Z,90.26
2018-07-12T04:55:04.293Z,89.69
2018-07-12T04:55:30.423Z,89.59
2018-07-12T04:55:56.564Z,89.21
2018-07-12T04:56:22.701Z,89.21
2018-07-12T04:56:48.840Z,89.3
2018-07-12T04:57:14.977Z,89.5
2018-07-12T04:57:41.113Z,89.5
2018-07-12T04:58:07.270Z,89.59
2018-07-12T04:58:33.472Z,89.11
2018-07-12T04:58:59.530Z,88.77
2018-07-12T04:59:25.671Z,88.48
2018-07-12T04:59:51.830Z,88.19
2018-07-12T05:00:18.004Z,87.95
2018-07-12T05:00:44.138Z,87.56
2018-07-12T05:01:10.283Z,85.87
2018-07-12T05:01:36.418Z,85.68
2018-07-12T05:02:02.558Z,85.34
2018-07-12T05:02:28.697Z,84.38
2018-07-12T05:02:54.843Z,84.42
2018-07-12T05:03:20.997Z,83.07
2018-07-12T05:03:47.158Z,81.85
2018-07-12T05:04:13.324Z,81.27
2018-07-12T05:04:39.460Z,79.93
2018-07-12T05:05:05.602Z,78.96
2018-07-12T05:05:31.743Z,78.71
2018-07-12T05:05:57.883Z,77.75
2018-07-12T05:06:24.019Z,77.07
2018-07-12T05:06:50.175Z,76.5
2018-07-12T05:07:16.315Z,76.2
2018-07-12T05:07:42.452Z,75.67
2018-07-12T05:08:08.691Z,75.67
2018-07-12T05:08:34.783Z,75.18
2018-07-12T05:09:00.915Z,74.99
2018-07-12T05:09:27.087Z,74.89
2018-07-12T05:09:53.243Z,75.09
2018-07-12T05:10:19.383Z,74.89
2018-07-12T05:10:45.543Z,74.41
2018-07-12T05:11:11.679Z,74.41
2018-07-12T05:11:37.818Z,74.51
2018-07-12T05:12:03.959Z,74.31
2018-07-12T05:12:30.125Z,73.93
2018-07-12T05:12:56.260Z,74.21
2018-07-12T05:13:22.430Z,74.41
2018-07-12T05:13:48.571Z,74.6
2018-07-12T05:14:14.732Z,74.89
2018-07-12T05:14:40.866Z,74.85
2018-07-12T05:15:07.012Z,75.34
2018-07-12T05:15:33.148Z,74.95
2018-07-12T05:15:59.308Z,74.76
2018-07-12T05:16:25.444Z,75.43
2018-07-12T05:16:51.584Z,75.72
2018-07-12T05:17:17.715Z,75.68
2018-07-12T05:17:43.854Z,75.97
2018-07-12T05:18:09.997Z,76.45
2018-07-12T05:18:36.131Z,76.45
2018-07-12T05:19:02.266Z,76.75
2018-07-12T05:19:28.406Z,77.03
2018-07-12T05:19:54.624Z,77.33
2018-07-12T05:20:22.348Z,77.71
2018-07-12T05:20:48.696Z,77.67
2018-07-12T05:21:14.841Z,77.86
2018-07-12T05:21:40.981Z,78.06
2018-07-12T05:22:07.114Z,78.15
2018-07-12T05:22:33.279Z,78.92
2018-07-12T05:22:59.421Z,78.63
2018-07-12T05:23:27.101Z,79.02
2018-07-12T05:23:53.261Z,79.11
2018-07-12T05:24:19.390Z,79.5
2018-07-12T05:24:45.548Z,79.41
2018-07-12T05:25:11.689Z,79.21
2018-07-12T05:25:37.834Z,80.27
2018-07-12T05:26:03.966Z,79.6
2018-07-12T05:26:30.118Z,79.75
2018-07-12T05:26:56.255Z,80.14
2018-07-12T05:27:22.396Z,80.23
2018-07-12T05:27:48.535Z,79.94
2018-07-12T05:28:14.666Z,80.33
2018-07-12T05:28:40.812Z,80.52
2018-07-12T05:29:06.946Z,80.91
2018-07-12T05:29:33.089Z,80.81
2018-07-12T05:29:59.230Z,81.2
2018-07-12T05:30:25.375Z,81.01
2018-07-12T05:30:51.573Z,81.58
2018-07-12T05:31:17.696Z,81.2
2018-07-12T05:31:43.882Z,80.91
2018-07-12T05:32:10.051Z,81.29
2018-07-12T05:32:36.195Z,81.29
2018-07-12T05:33:02.336Z,81.77
2018-07-12T05:33:28.478Z,81.25
2018-07-12T05:33:54.666Z,81.16
2018-07-12T05:34:20.757Z,81.77
2018-07-12T05:34:46.898Z,81.58
2018-07-12T05:35:13.035Z,81.54
2018-07-12T05:35:39.181Z,81.54
2018-07-12T05:36:05.328Z,82.02
2018-07-12T05:36:31.511Z,81.73
2018-07-12T05:36:57.657Z,81.54
2018-07-12T05:37:23.799Z,81.83
2018-07-12T05:37:49.935Z,81.35